Data for 03/13/2016

Time Sea-Level Adjusted Pressure Absolute Pressure Temperature Relative Humidity Dew Point   
(mb) (inHg) (mb) (inHg) (C) (F) (%) (C) (F)
00:05 1010 29.83 839 24.78 6.7 44 40 -6 21.1
00:10 1010 29.83 839 24.78 6.4 43.5 42 -5.7 21.7
00:15 1009 29.8 839 24.78 6.2 43.2 40 -6.2 20.8
00:20 1010 29.83 839 24.78 6.2 43.2 44 -5.2 22.6
00:25 1010 29.83 839 24.78 5.5 41.8 48 -4.6 23.6
00:30 1010 29.83 839 24.78 4.8 40.6 47 -5.7 21.7
00:35 1010 29.83 839 24.78 5.1 41.2 45 -5.7 21.7
00:40 1010 29.83 839 24.78 5.4 41.7 42 -6.4 20.5
00:45 1010 29.83 839 24.78 6.1 43 41 -6.2 20.8
00:50 1010 29.83 839 24.78 6.5 43.6 39 -6.5 20.2
00:55 1010 29.83 839 24.78 6.5 43.6 39 -6.4 20.5
01:00 1010 29.83 839 24.78 6.2 43.2 40 -6.3 20.7
01:05 1010 29.83 839 24.78 6.5 43.7 39 -6.6 20
01:10 1010 29.83 839 24.78 6.5 43.7 39 -6.5 20.4
01:15 1010 29.83 839 24.78 6.6 43.8 38 -6.7 20
01:20 1010 29.83 839 24.78 6.9 44.4 38 -6.5 20.2
01:25 1010 29.83 839 24.78 6.7 44.1 38 -6.5 20.3
01:30 1009 29.8 839 24.78 6.7 44 38 -6.8 19.8
01:35 1010 29.83 839 24.78 6.8 44.3 38 -6.4 20.5
01:40 1010 29.83 839 24.78 6.8 44.3 39 -6.2 20.9
01:45 1010 29.83 839 24.78 6.9 44.4 38 -6.4 20.4
01:50 1010 29.83 839 24.78 7.1 44.7 37 -6.5 20.3
01:55 1010 29.83 839 24.78 7.1 44.7 39 -5.9 21.4
03:00 1010 29.83 839 24.78 6.9 44.5 40 -5.8 21.5
03:05 1010 29.83 839 24.78 6.9 44.4 40 -6 21.3
03:10 1010 29.83 839 24.78 6.8 44.2 40 -6 21.1
03:15 1010 29.83 839 24.78 6.8 44.3 40 -6 21.3
03:20 1010 29.83 839 24.78 6.7 44.1 41 -5.5 22.1
03:25 1010 29.83 839 24.78 6.4 43.6 43 -5.3 22.5
03:30 1010 29.83 839 24.78 6.4 43.5 43 -5.4 22.2
03:35 1010 29.83 839 24.78 6.1 42.9 46 -4.7 23.6
03:40 1010 29.83 839 24.78 5.5 41.9 47 -4.9 23.3
03:45 1010 29.83 839 24.78 5.4 41.8 44 -5.7 21.7
03:50 1010 29.83 839 24.78 5.9 42.6 44 -5.3 22.4
03:55 1010 29.83 839 24.78 5.6 42.1 45 -5.3 22.4
04:00 1010 29.83 839 24.78 5.5 41.8 48 -4.8 23.4
04:05 1010 29.83 839 24.78 4.8 40.7 50 -4.7 23.5
04:10 1010 29.83 839 24.78 4.4 40 51 -4.8 23.3
04:15 1010 29.83 839 24.78 4.3 39.8 51 -4.9 23.2
04:20 1010 29.83 839 24.78 4.5 40.2 50 -5.1 22.8
04:25 1010 29.83 839 24.78 4.7 40.4 49 -5 22.9
04:30 1010 29.83 839 24.78 4.8 40.6 50 -4.8 23.4
04:35 1010 29.83 839 24.78 4.9 40.9 48 -5.1 22.8
04:40 1010 29.83 839 24.78 5 40.9 47 -5.5 22.2
04:45 1010 29.83 839 24.78 5.1 41.2 48 -5 22.9
04:50 1010 29.83 839 24.78 5.2 41.4 48 -5 22.9
04:55 1010 29.83 839 24.78 5.1 41.1 49 -4.9 23.3
05:00 1010 29.83 839 24.78 5 41 49 -4.8 23.3
05:05 1010 29.83 839 24.78 5.1 41.2 50 -4.5 23.8
05:10 1010 29.83 839 24.78 4.9 40.8 50 -4.5 23.8
05:15 1010 29.83 839 24.78 4.6 40.2 52 -4.3 24.2
05:20 1010 29.83 839 24.78 4.3 39.7 55 -4 24.9
05:25 1010 29.83 839 24.78 4 39.2 58 -3.6 25.5
05:30 1010 29.83 839 24.78 3.8 38.8 59 -3.4 25.9
05:35 1010 29.83 839 24.78 3.7 38.6 61 -3.3 26.1
05:40 1010 29.83 839 24.78 3.7 38.6 63 -2.7 27.2
05:45 1010 29.83 839 24.78 3.9 39 63 -2.6 27.4
05:50 1010 29.83 839 24.78 3.9 39 61 -2.9 26.8
05:55 1010 29.83 839 24.78 4 39.1 61 -2.9 26.7
06:00 1010 29.83 840 24.81 4 39.2 61 -2.9 26.8
06:05 1010 29.83 840 24.81 3.9 39.1 62 -2.6 27.3
06:10 1010 29.83 840 24.81 3.7 38.7 64 -2.4 27.7
06:15 1011 29.85 840 24.81 3.5 38.3 66 -2.3 27.9
06:20 1011 29.85 840 24.81 3.5 38.3 66 -2.3 27.8
06:25 1011 29.85 840 24.81 3.5 38.4 66 -2.2 28.1
06:30 1011 29.85 840 24.81 3.5 38.2 68 -1.9 28.5
06:35 1011 29.85 840 24.81 3.3 38 69 -1.9 28.7
06:40 1011 29.85 840 24.81 3.2 37.7 70 -1.8 28.8
06:45 1011 29.85 840 24.81 3.1 37.5 71 -1.7 29
06:50 1011 29.85 840 24.81 2.9 37.3 72 -1.7 29
06:55 1011 29.85 840 24.81 2.8 37.1 72 -1.7 29
07:00 1011 29.85 840 24.81 2.8 37 74 -1.4 29.5
07:05 1011 29.85 840 24.81 2.7 36.8 73 -1.7 28.9
07:10 1011 29.85 840 24.81 2.5 36.5 73 -1.8 28.8
07:15 1011 29.85 840 24.81 2.4 36.3 74 -1.8 28.8
07:20 1011 29.85 840 24.81 2.3 36.1 75 -1.8 28.8
07:25 1011 29.85 840 24.81 2.1 35.9 76 -1.7 28.9
07:30 1011 29.85 840 24.81 2 35.6 76 -1.9 28.6
07:35 1011 29.85 840 24.81 1.9 35.5 76 -1.8 28.7
07:40 1011 29.85 840 24.81 2 35.5 75 -1.9 28.5
07:45 1011 29.85 840 24.81 2.1 35.7 75 -1.9 28.6
07:50 1011 29.85 840 24.81 2.1 35.8 75 -1.8 28.7
07:55 1011 29.85 840 24.81 2.1 35.9 74 -2 28.5
08:00 1011 29.85 840 24.81 2.2 35.9 74 -2 28.4
08:05 1011 29.85 840 24.81 1.8 35.2 77 -1.9 28.7
08:10 1011 29.85 840 24.81 1.4 34.5 78 -2 28.4
08:15 1010 29.83 840 24.81 1.7 35 76 -2.2 28.1
08:20 1011 29.85 840 24.81 1.6 34.9 76 -2.2 28.1
08:25 1011 29.85 840 24.81 1.5 34.7 76 -2.2 28
08:30 1011 29.85 840 24.81 1.2 34.2 77 -2.3 27.8
08:35 1011 29.85 840 24.81 1.2 34.1 77 -2.4 27.6
08:40 1011 29.85 840 24.81 1.2 34.2 76 -2.5 27.6
08:45 1011 29.85 840 24.81 1.4 34.5 76 -2.4 27.6
08:50 1010 29.83 840 24.81 1.6 34.8 75 -2.4 27.7
08:55 1010 29.83 840 24.81 2.2 35.9 72 -2.3 27.9
09:00 1010 29.83 840 24.81 2.4 36.4 72 -2.1 28.3
09:05 1010 29.83 840 24.81 2.4 36.4 73 -2 28.4
09:10 1010 29.83 840 24.81 2.5 36.5 73 -1.9 28.6
09:15 1010 29.83 840 24.81 2.6 36.7 72 -2 28.4
09:20 1010 29.83 840 24.81 2.4 36.3 73 -2 28.4
09:25 1010 29.83 839 24.78 2.5 36.4 72 -2.1 28.2
09:30 1010 29.83 839 24.78 2.9 37.3 70 -2 28.4
09:35 1010 29.83 839 24.78 3.4 38.2 67 -2 28.3
09:40 1010 29.83 840 24.81 4.4 40 64 -1.9 28.6
09:45 1010 29.83 840 24.81 4.8 40.6 62 -1.9 28.6
09:50 1010 29.83 839 24.78 5.3 41.5 60 -1.7 28.9
09:55 1010 29.83 839 24.78 5.5 41.8 59 -1.8 28.7
10:00 1010 29.83 840 24.81 5.6 42 60 -1.6 29.1
10:05 1010 29.83 840 24.81 5.7 42.2 59 -1.7 28.9
10:10 1010 29.83 840 24.81 5.9 42.7 59 -1.5 29.3
10:15 1010 29.83 839 24.78 5.8 42.4 59 -1.7 29
10:20 1010 29.83 840 24.81 5.8 42.4 60 -1.3 29.6
10:25 1010 29.83 840 24.81 5.6 42.1 61 -1.4 29.5
10:30 1011 29.85 840 24.81 5.2 41.4 63 -1.3 29.7
10:35 1011 29.85 840 24.81 4.9 40.7 63 -1.5 29.3
10:40 1011 29.85 840 24.81 4.8 40.6 64 -1.5 29.3
10:45 1011 29.85 840 24.81 4.7 40.4 65 -1.4 29.6
10:50 1011 29.85 840 24.81 4.5 40.1 66 -1.3 29.7
10:55 1011 29.85 840 24.81 4.4 39.8 67 -1.1 30
11:00 1011 29.85 840 24.81 4.3 39.8 68 -1 30.1
11:05 1011 29.85 840 24.81 4.3 39.8 68 -1 30.2
11:10 1011 29.85 840 24.81 4.3 39.7 68 -1.1 30
11:15 1011 29.85 840 24.81 4.4 39.9 67 -1.1 30
11:20 1011 29.85 840 24.81 4.2 39.6 69 -0.9 30.4
11:25 1011 29.85 840 24.81 4 39.2 69 -1.2 29.9
11:30 1011 29.85 840 24.81 4.4 40 67 -1.1 29.9
11:35 1011 29.85 840 24.81 4.3 39.8 68 -1 30.2
11:40 1011 29.85 840 24.81 4.4 39.9 67 -1.1 30
11:45 1011 29.85 840 24.81 4.8 40.6 65 -1.2 29.8
11:50 1011 29.85 840 24.81 4.8 40.6 67 -0.7 30.7
11:55 1011 29.85 840 24.81 4.6 40.2 66 -1.2 29.8
12:00 1011 29.85 840 24.81 4.8 40.6 66 -1 30.1
12:05 1011 29.85 840 24.81 4.8 40.6 66 -1.1 30.1
12:10 1011 29.85 840 24.81 5.1 41.3 64 -1.1 30
12:15 1011 29.85 840 24.81 5.4 41.7 63 -1 30.3
12:20 1010 29.83 840 24.81 5.5 41.8 64 -0.9 30.5
12:25 1010 29.83 840 24.81 5.4 41.7 63 -1 30.2
12:30 1010 29.83 840 24.81 5.4 41.6 63 -1.1 29.9
12:35 1010 29.83 840 24.81 5.4 41.7 63 -1.1 30
12:40 1010 29.83 840 24.81 5.4 41.8 64 -0.9 30.4
12:45 1010 29.83 839 24.78 5.2 41.4 63 -1.3 29.6
12:50 1010 29.83 839 24.78 6 42.7 59 -1.4 29.4
12:55 1010 29.83 839 24.78 6.3 43.3 58 -1.3 29.7
13:00 1010 29.83 839 24.78 6 42.9 60 -1.1 30
13:05 1010 29.83 839 24.78 6.4 43.4 63 -0.2 31.6
13:10 1010 29.83 839 24.78 6.6 43.8 62 -0.3 31.5
13:15 1010 29.83 839 24.78 6.6 43.8 61 -0.4 31.4
13:20 1010 29.83 839 24.78 6.8 44.2 56 -1.3 29.6
13:25 1010 29.83 839 24.78 7.9 46.1 53 -1.2 29.8
13:30 1010 29.83 839 24.78 8.5 47.3 49 -1.5 29.4
13:35 1010 29.83 839 24.78 8 46.4 53 -1 30.2
13:40 1009 29.8 839 24.78 7.9 46.2 51 -1.6 29.1
13:45 1009 29.8 839 24.78 9.3 48.7 44 -2.4 27.7
13:50 1009 29.8 838 24.75 9.5 49.2 44 -2.1 28.2
13:55 1009 29.8 838 24.75 9.5 49.2 44 -2.2 28.1
14:00 1009 29.8 838 24.75 9.4 49 42 -2.7 27.2
14:05 1009 29.8 838 24.75 9.6 49.3 42 -2.7 27.1
14:10 1009 29.8 838 24.75 10.2 50.4 40 -2.7 27.1
14:15 1009 29.8 838 24.75 9.9 49.8 40 -2.9 26.7
14:20 1009 29.8 838 24.75 10 50 38 -3.6 25.4
14:25 1008 29.77 838 24.75 10.8 51.4 34 -4.4 24.1
14:30 1008 29.77 838 24.75 11.2 52.1 35 -3.8 25.2
14:35 1008 29.77 838 24.75 11 51.9 38 -2.8 27
14:40 1008 29.77 838 24.75 10.6 51 38 -3.1 26.4
14:45 1008 29.77 838 24.75 10.5 51 39 -2.9 26.7
14:50 1008 29.77 837 24.72 10 50.1 39 -3.1 26.3
14:55 1008 29.77 837 24.72 10.1 50.2 37 -4 24.7
15:00 1008 29.77 837 24.72 10.9 51.6 37 -3.2 26.2
15:05 1008 29.77 837 24.72 10.4 50.7 38 -3.2 26.2
15:10 1008 29.77 837 24.72 9.7 49.5 40 -3.1 26.4
15:15 1008 29.77 837 24.72 9.8 49.6 40 -3.1 26.4
15:20 1008 29.77 837 24.72 9.4 48.9 41 -3 26.6
15:25 1008 29.77 837 24.72 9.7 49.5 40 -3.1 26.5
15:30 1008 29.77 837 24.72 9 48.1 42 -3.3 26
15:35 1008 29.77 837 24.72 8.9 48.1 42 -3.3 26.1
15:40 1008 29.77 837 24.72 8.9 48.1 41 -3.5 25.7
15:45 1007 29.74 837 24.72 8.9 48.1 41 -3.5 25.6
15:50 1007 29.74 837 24.72 9.4 49 39 -3.8 25.1
15:55 1007 29.74 836 24.69 9.5 49 39 -3.7 25.3
16:00 1007 29.74 836 24.69 9.6 49.3 40 -3.4 25.9
16:05 1007 29.74 836 24.69 9.3 48.7 38 -4.1 24.6
16:10 1007 29.74 836 24.69 9.6 49.4 37 -4.4 24.1
16:15 1007 29.74 836 24.69 10.3 50.5 32 -5.5 22.1
16:20 1007 29.74 836 24.69 10.7 51.2 32 -5.4 22.2
16:25 1007 29.74 836 24.69 10.4 50.7 33 -5.3 22.5
16:30 1007 29.74 836 24.69 9.9 49.8 33 -5.4 22.2
16:35 1007 29.74 836 24.69 10 50 32 -5.8 21.5
16:40 1007 29.74 836 24.69 9.9 49.9 34 -5.2 22.6
16:45 1007 29.74 836 24.69 10 50 34 -5.3 22.5
16:50 1006 29.71 836 24.69 10.4 50.7 31 -5.8 21.5
16:55 1006 29.71 836 24.69 11.1 52 29 -6 21.1
17:00 1006 29.71 836 24.69 11.8 53.2 28 -6.1 20.9
17:05 1006 29.71 835 24.66 12 53.6 27 -6.1 20.9
17:10 1006 29.71 835 24.66 11.7 53.1 22 -9.3 15.3
17:15 1006 29.71 835 24.66 11.2 52.1 23 -9.4 15.1
17:20 1006 29.71 835 24.66 11.1 52 24 -8.9 16
17:25 1006 29.71 835 24.66 11 51.7 23 -9.2 15.5
17:30 1006 29.71 835 24.66 10.7 51.3 25 -8.7 16.4
17:35 1006 29.71 835 24.66 10.7 51.2 26 -8.2 17.2
17:40 1006 29.71 835 24.66 10.6 51.1 26 -8.1 17.4
17:45 1006 29.71 835 24.66 10.9 51.5 26 -8 17.5
17:50 1006 29.71 835 24.66 11.1 52 26 -7.8 17.9
17:55 1006 29.71 835 24.66 11.1 52 26 -7.8 17.9
18:00 1006 29.71 835 24.66 11 51.8 26 -7.6 18.3
18:05 1006 29.71 835 24.66 10.8 51.4 27 -7.5 18.6
18:10 1006 29.71 835 24.66 10.7 51.2 27 -7.5 18.5
18:15 1006 29.71 835 24.66 10.7 51.3 28 -7.2 19
18:20 1006 29.71 835 24.66 10.7 51.2 28 -7.1 19.2
18:25 1006 29.71 835 24.66 10.8 51.4 27 -7.3 18.9
18:30 1006 29.71 835 24.66 10.8 51.4 27 -7.3 18.9
18:35 1006 29.71 835 24.66 10.7 51.3 26 -7.9 17.8
18:40 1006 29.71 835 24.66 10.6 51 27 -7.8 18
18:45 1006 29.71 835 24.66 10.5 50.8 27 -7.8 17.9
18:50 1006 29.71 835 24.66 10.4 50.7 28 -7.4 18.7
18:55 1006 29.71 835 24.66 10.2 50.3 29 -7.2 19
19:00 1006 29.71 835 24.66 9.9 49.8 30 -7.1 19.3
19:05 1006 29.71 835 24.66 9.7 49.4 30 -7.1 19.3
19:10 1006 29.71 835 24.66 9.5 49 31 -7 19.3
19:15 1006 29.71 835 24.66 9.3 48.8 31 -7.1 19.1
19:20 1006 29.71 835 24.66 9.2 48.5 30 -7.4 18.7
19:25 1006 29.71 835 24.66 9.2 48.5 30 -7.4 18.6
19:30 1006 29.71 835 24.66 9.1 48.3 30 -7.4 18.6
19:35 1006 29.71 835 24.66 9 48.2 31 -7.4 18.7
19:40 1006 29.71 835 24.66 8.9 48.1 31 -7.3 18.9
19:45 1005 29.68 835 24.66 8.9 48 31 -7.5 18.5
19:50 1005 29.68 835 24.66 8.9 48.1 31 -7.3 18.8
19:55 1005 29.68 835 24.66 8.9 48 32 -7.1 19.2
20:00 1005 29.68 835 24.66 8.8 47.8 31 -7.3 18.9
20:05 1006 29.71 835 24.66 8.7 47.7 32 -6.9 19.6
20:10 1006 29.71 835 24.66 8.6 47.5 33 -6.8 19.8
20:15 1005 29.68 835 24.66 8.6 47.5 33 -6.9 19.5
20:20 1005 29.68 835 24.66 8.6 47.4 32 -7.1 19.2
20:25 1005 29.68 835 24.66 8.6 47.4 32 -7.1 19.3
20:30 1005 29.68 835 24.66 8.5 47.3 32 -7.3 18.8
20:35 1005 29.68 835 24.66 8.6 47.5 32 -7 19.3
20:40 1005 29.68 835 24.66 8.6 47.4 32 -7.2 19.1
20:45 1005 29.68 835 24.66 8.5 47.2 32 -7.1 19.2
20:50 1005 29.68 835 24.66 8.5 47.4 32 -7.3 18.9
20:55 1005 29.68 835 24.66 8.5 47.4 32 -7.4 18.7
21:00 1005 29.68 835 24.66 8.6 47.4 31 -7.5 18.6
21:05 1005 29.68 835 24.66 8.7 47.7 32 -7.1 19.3
21:10 1005 29.68 834 24.63 8.6 47.5 32 -7 19.4
21:15 1005 29.68 834 24.63 8.5 47.3 33 -6.8 19.7
21:20 1005 29.68 834 24.63 8.5 47.2 33 -6.8 19.8
21:25 1005 29.68 834 24.63 8.5 47.2 33 -6.7 19.9
21:30 1005 29.68 834 24.63 8.6 47.4 33 -7 19.5
21:35 1005 29.68 834 24.63 8.7 47.7 33 -6.6 20
21:40 1005 29.68 834 24.63 8.7 47.6 33 -6.6 20.1
21:45 1005 29.68 834 24.63 8.6 47.5 33 -6.7 19.9
21:50 1005 29.68 834 24.63 8.6 47.5 34 -6.5 20.4
21:55 1005 29.68 834 24.63 8.6 47.5 34 -6.5 20.3
22:00 1005 29.68 834 24.63 8.7 47.6 33 -6.5 20.2
22:05 1005 29.68 834 24.63 8.7 47.7 33 -6.7 20
22:10 1005 29.68 834 24.63 8.6 47.6 33 -6.6 20.1
22:15 1005 29.68 834 24.63 8.6 47.6 34 -6.4 20.5
22:20 1005 29.68 834 24.63 8.4 47.1 35 -6.2 20.8
22:25 1005 29.68 834 24.63 8.3 47 36 -6 21.3
22:30 1005 29.68 834 24.63 8.3 46.9 35 -6.2 20.9
22:35 1005 29.68 834 24.63 8.3 47 36 -5.7 21.8
22:40 1005 29.68 834 24.63 8.3 46.9 37 -5.4 22.3
22:45 1005 29.68 834 24.63 8.1 46.7 38 -5.3 22.5
22:50 1005 29.68 834 24.63 8.1 46.6 38 -5.2 22.6
22:55 1005 29.68 834 24.63 8.1 46.6 39 -5.1 22.8
23:00 1005 29.68 834 24.63 8 46.4 39 -5 23
23:05 1005 29.68 834 24.63 7.9 46.2 40 -4.9 23.1
23:10 1004 29.65 834 24.63 7.8 46 41 -4.6 23.8
23:15 1004 29.65 834 24.63 7.6 45.6 43 -4.2 24.5
23:20 1004 29.65 834 24.63 7.4 45.4 44 -4 24.8
23:25 1004 29.65 834 24.63 7.2 45 43 -4.5 24
23:30 1005 29.68 834 24.63 7.5 45.4 42 -4.5 23.9
23:35 1004 29.65 834 24.63 7.9 46.1 41 -4.7 23.6
23:40 1004 29.65 833 24.6 8 46.4 41 -4.4 24
23:45 1004 29.65 833 24.6 7.9 46.3 42 -4.1 24.6
23:50 1004 29.65 833 24.6 7.8 46 43 -4.1 24.7
23:55 1004 29.65 833 24.6 7.7 45.8 43 -4.1 24.6
24:00 1004 29.65 833 24.6 7.7 45.9 43 -4 24.9